sensor_id;sensor_type;location;lat;lon;timestamp;P1;durP1;ratioP1;P2;durP2;ratioP2
45254;SDS011;30989;52.078;21.014;2023-05-14T00:02:08;27.38;;;13.35;;
45254;SDS011;30989;52.078;21.014;2023-05-14T00:04:33;22.48;;;11.45;;
45254;SDS011;30989;52.078;21.014;2023-05-14T00:06:59;18.05;;;9.95;;
45254;SDS011;30989;52.078;21.014;2023-05-14T00:09:24;18.85;;;9.85;;
45254;SDS011;30989;52.078;21.014;2023-05-14T00:11:50;22.50;;;11.32;;
45254;SDS011;30989;52.078;21.014;2023-05-14T00:14:16;20.17;;;10.60;;
45254;SDS011;30989;52.078;21.014;2023-05-14T00:16:41;20.17;;;10.48;;
45254;SDS011;30989;52.078;21.014;2023-05-14T00:19:07;23.10;;;11.88;;
45254;SDS011;30989;52.078;21.014;2023-05-14T00:21:32;19.08;;;10.20;;
45254;SDS011;30989;52.078;21.014;2023-05-14T00:23:58;19.52;;;10.52;;
45254;SDS011;30989;52.078;21.014;2023-05-14T00:26:23;18.98;;;9.35;;
45254;SDS011;30989;52.078;21.014;2023-05-14T00:28:49;18.48;;;10.45;;
45254;SDS011;30989;52.078;21.014;2023-05-14T00:31:14;19.02;;;9.45;;
45254;SDS011;30989;52.078;21.014;2023-05-14T00:33:40;17.65;;;10.23;;
45254;SDS011;30989;52.078;21.014;2023-05-14T00:36:05;18.85;;;10.13;;
45254;SDS011;30989;52.078;21.014;2023-05-14T00:38:31;17.23;;;9.23;;
45254;SDS011;30989;52.078;21.014;2023-05-14T00:40:57;19.35;;;9.15;;
45254;SDS011;30989;52.078;21.014;2023-05-14T00:43:22;18.13;;;8.43;;
45254;SDS011;30989;52.078;21.014;2023-05-14T00:45:49;20.33;;;9.20;;
45254;SDS011;30989;52.078;21.014;2023-05-14T00:48:16;17.42;;;8.15;;
45254;SDS011;30989;52.078;21.014;2023-05-14T00:50:42;18.60;;;8.65;;
45254;SDS011;30989;52.078;21.014;2023-05-14T00:53:08;20.02;;;8.15;;
45254;SDS011;30989;52.078;21.014;2023-05-14T00:55:35;14.50;;;8.32;;
45254;SDS011;30989;52.078;21.014;2023-05-14T00:58:03;20.80;;;8.90;;
45254;SDS011;30989;52.078;21.014;2023-05-14T01:00:31;20.35;;;10.15;;
45254;SDS011;30989;52.078;21.014;2023-05-14T01:02:56;21.80;;;10.57;;
45254;SDS011;30989;52.078;21.014;2023-05-14T01:05:25;16.75;;;9.43;;
45254;SDS011;30989;52.078;21.014;2023-05-14T01:07:59;18.55;;;9.52;;
45254;SDS011;30989;52.078;21.014;2023-05-14T01:10:41;13.82;;;8.30;;
45254;SDS011;30989;52.078;21.014;2023-05-14T01:13:18;13.57;;;8.00;;
45254;SDS011;30989;52.078;21.014;2023-05-14T01:15:50;19.33;;;8.25;;
45254;SDS011;30989;52.078;21.014;2023-05-14T01:18:19;14.93;;;7.45;;
45254;SDS011;30989;52.078;21.014;2023-05-14T01:20:48;14.70;;;7.57;;
45254;SDS011;30989;52.078;21.014;2023-05-14T01:23:14;15.95;;;8.00;;
45254;SDS011;30989;52.078;21.014;2023-05-14T01:25:40;13.10;;;8.07;;
45254;SDS011;30989;52.078;21.014;2023-05-14T01:28:18;23.55;;;9.25;;
45254;SDS011;30989;52.078;21.014;2023-05-14T01:30:56;14.15;;;8.52;;
45254;SDS011;30989;52.078;21.014;2023-05-14T01:33:30;18.73;;;8.80;;
45254;SDS011;30989;52.078;21.014;2023-05-14T01:35:59;12.98;;;8.27;;
45254;SDS011;30989;52.078;21.014;2023-05-14T01:38:25;15.23;;;8.88;;
45254;SDS011;30989;52.078;21.014;2023-05-14T01:40:54;16.83;;;8.55;;
45254;SDS011;30989;52.078;21.014;2023-05-14T01:43:20;14.40;;;8.15;;
45254;SDS011;30989;52.078;21.014;2023-05-14T01:45:47;21.77;;;10.80;;
45254;SDS011;30989;52.078;21.014;2023-05-14T01:48:12;17.17;;;9.52;;
45254;SDS011;30989;52.078;21.014;2023-05-14T01:50:39;19.52;;;9.23;;
45254;SDS011;30989;52.078;21.014;2023-05-14T01:53:04;17.27;;;9.05;;
45254;SDS011;30989;52.078;21.014;2023-05-14T01:55:30;19.15;;;8.82;;
45254;SDS011;30989;52.078;21.014;2023-05-14T01:57:56;24.50;;;10.18;;
45254;SDS011;30989;52.078;21.014;2023-05-14T02:00:21;19.58;;;9.38;;
45254;SDS011;30989;52.078;21.014;2023-05-14T02:02:48;21.92;;;9.80;;
45254;SDS011;30989;52.078;21.014;2023-05-14T02:05:13;16.55;;;7.80;;
45254;SDS011;30989;52.078;21.014;2023-05-14T02:07:39;15.05;;;8.25;;
45254;SDS011;30989;52.078;21.014;2023-05-14T02:10:04;16.83;;;8.98;;
45254;SDS011;30989;52.078;21.014;2023-05-14T02:12:30;17.45;;;9.23;;
45254;SDS011;30989;52.078;21.014;2023-05-14T02:14:56;20.25;;;9.13;;
45254;SDS011;30989;52.078;21.014;2023-05-14T02:17:22;17.58;;;8.85;;
45254;SDS011;30989;52.078;21.014;2023-05-14T02:19:49;22.00;;;10.00;;
45254;SDS011;30989;52.078;21.014;2023-05-14T02:22:14;20.85;;;9.38;;
45254;SDS011;30989;52.078;21.014;2023-05-14T02:24:39;15.55;;;8.32;;
45254;SDS011;30989;52.078;21.014;2023-05-14T02:27:05;18.95;;;9.23;;
45254;SDS011;30989;52.078;21.014;2023-05-14T02:29:30;16.65;;;8.80;;
45254;SDS011;30989;52.078;21.014;2023-05-14T02:31:56;21.95;;;9.50;;
45254;SDS011;30989;52.078;21.014;2023-05-14T02:34:21;17.05;;;9.38;;
45254;SDS011;30989;52.078;21.014;2023-05-14T02:36:49;21.15;;;11.00;;
45254;SDS011;30989;52.078;21.014;2023-05-14T02:39:14;18.67;;;9.18;;
45254;SDS011;30989;52.078;21.014;2023-05-14T02:41:40;18.63;;;9.90;;
45254;SDS011;30989;52.078;21.014;2023-05-14T02:44:05;18.85;;;8.50;;
45254;SDS011;30989;52.078;21.014;2023-05-14T02:46:30;16.95;;;8.75;;
45254;SDS011;30989;52.078;21.014;2023-05-14T02:48:56;16.20;;;9.25;;
45254;SDS011;30989;52.078;21.014;2023-05-14T02:51:22;17.65;;;8.70;;
45254;SDS011;30989;52.078;21.014;2023-05-14T02:53:48;16.55;;;8.57;;
45254;SDS011;30989;52.078;21.014;2023-05-14T02:56:13;20.30;;;9.20;;
45254;SDS011;30989;52.078;21.014;2023-05-14T02:58:39;18.40;;;8.95;;
45254;SDS011;30989;52.078;21.014;2023-05-14T03:01:05;16.70;;;8.35;;
45254;SDS011;30989;52.078;21.014;2023-05-14T03:03:30;15.75;;;8.98;;
45254;SDS011;30989;52.078;21.014;2023-05-14T03:05:56;27.25;;;10.60;;
45254;SDS011;30989;52.078;21.014;2023-05-14T03:08:21;14.52;;;8.23;;
45254;SDS011;30989;52.078;21.014;2023-05-14T03:10:47;16.95;;;9.05;;
45254;SDS011;30989;52.078;21.014;2023-05-14T03:13:12;19.33;;;9.63;;
45254;SDS011;30989;52.078;21.014;2023-05-14T03:15:42;16.25;;;9.00;;
45254;SDS011;30989;52.078;21.014;2023-05-14T03:18:08;14.82;;;8.30;;
45254;SDS011;30989;52.078;21.014;2023-05-14T03:20:33;16.20;;;8.30;;
45254;SDS011;30989;52.078;21.014;2023-05-14T03:22:58;18.60;;;9.55;;
45254;SDS011;30989;52.078;21.014;2023-05-14T03:25:24;15.88;;;8.73;;
45254;SDS011;30989;52.078;21.014;2023-05-14T03:27:50;23.45;;;10.07;;
45254;SDS011;30989;52.078;21.014;2023-05-14T03:30:15;18.42;;;9.48;;
45254;SDS011;30989;52.078;21.014;2023-05-14T03:32:41;14.80;;;8.15;;
45254;SDS011;30989;52.078;21.014;2023-05-14T03:35:07;16.38;;;9.82;;
45254;SDS011;30989;52.078;21.014;2023-05-14T03:37:32;17.70;;;8.85;;
45254;SDS011;30989;52.078;21.014;2023-05-14T03:39:58;17.48;;;8.98;;
45254;SDS011;30989;52.078;21.014;2023-05-14T03:42:23;22.27;;;11.18;;
45254;SDS011;30989;52.078;21.014;2023-05-14T03:44:48;22.17;;;11.10;;
45254;SDS011;30989;52.078;21.014;2023-05-14T03:47:14;23.95;;;10.15;;
45254;SDS011;30989;52.078;21.014;2023-05-14T03:49:39;15.75;;;8.85;;
45254;SDS011;30989;52.078;21.014;2023-05-14T03:52:08;19.73;;;11.95;;
45254;SDS011;30989;52.078;21.014;2023-05-14T03:54:33;21.00;;;11.98;;
45254;SDS011;30989;52.078;21.014;2023-05-14T03:56:59;17.80;;;9.65;;
45254;SDS011;30989;52.078;21.014;2023-05-14T03:59:26;19.88;;;10.80;;
45254;SDS011;30989;52.078;21.014;2023-05-14T04:01:52;20.02;;;11.77;;
45254;SDS011;30989;52.078;21.014;2023-05-14T04:04:18;20.52;;;11.05;;
45254;SDS011;30989;52.078;21.014;2023-05-14T04:06:43;23.67;;;11.32;;
45254;SDS011;30989;52.078;21.014;2023-05-14T04:09:09;20.02;;;11.35;;
45254;SDS011;30989;52.078;21.014;2023-05-14T04:11:35;22.60;;;12.38;;
45254;SDS011;30989;52.078;21.014;2023-05-14T04:14:01;24.27;;;14.05;;
45254;SDS011;30989;52.078;21.014;2023-05-14T04:16:27;22.80;;;13.18;;
45254;SDS011;30989;52.078;21.014;2023-05-14T04:18:53;22.58;;;12.75;;
45254;SDS011;30989;52.078;21.014;2023-05-14T04:21:19;27.95;;;14.63;;
45254;SDS011;30989;52.078;21.014;2023-05-14T04:23:44;35.55;;;18.63;;
45254;SDS011;30989;52.078;21.014;2023-05-14T04:26:10;23.13;;;12.57;;
45254;SDS011;30989;52.078;21.014;2023-05-14T04:28:35;22.05;;;10.88;;
45254;SDS011;30989;52.078;21.014;2023-05-14T04:31:01;21.83;;;10.93;;
45254;SDS011;30989;52.078;21.014;2023-05-14T04:33:26;23.67;;;10.90;;
45254;SDS011;30989;52.078;21.014;2023-05-14T04:35:52;19.02;;;10.32;;
45254;SDS011;30989;52.078;21.014;2023-05-14T04:38:17;21.25;;;11.73;;
45254;SDS011;30989;52.078;21.014;2023-05-14T04:40:43;19.65;;;11.48;;
45254;SDS011;30989;52.078;21.014;2023-05-14T04:43:08;19.08;;;10.40;;
45254;SDS011;30989;52.078;21.014;2023-05-14T04:45:34;19.90;;;10.70;;
45254;SDS011;30989;52.078;21.014;2023-05-14T04:48:00;19.58;;;9.80;;
45254;SDS011;30989;52.078;21.014;2023-05-14T04:50:25;17.33;;;9.02;;
45254;SDS011;30989;52.078;21.014;2023-05-14T04:52:51;21.75;;;9.75;;
45254;SDS011;30989;52.078;21.014;2023-05-14T04:55:16;17.15;;;9.80;;
45254;SDS011;30989;52.078;21.014;2023-05-14T04:57:42;16.45;;;10.27;;
45254;SDS011;30989;52.078;21.014;2023-05-14T05:00:07;16.33;;;9.07;;
45254;SDS011;30989;52.078;21.014;2023-05-14T05:02:34;22.70;;;12.40;;
45254;SDS011;30989;52.078;21.014;2023-05-14T05:05:00;22.63;;;10.25;;
45254;SDS011;30989;52.078;21.014;2023-05-14T05:07:25;23.30;;;10.13;;
45254;SDS011;30989;52.078;21.014;2023-05-14T05:09:50;22.50;;;10.07;;
45254;SDS011;30989;52.078;21.014;2023-05-14T05:12:16;17.58;;;8.82;;
45254;SDS011;30989;52.078;21.014;2023-05-14T05:14:41;15.40;;;8.80;;
45254;SDS011;30989;52.078;21.014;2023-05-14T05:17:07;20.77;;;10.48;;
45254;SDS011;30989;52.078;21.014;2023-05-14T05:19:32;20.42;;;10.02;;
45254;SDS011;30989;52.078;21.014;2023-05-14T05:21:57;22.90;;;10.23;;
45254;SDS011;30989;52.078;21.014;2023-05-14T05:24:23;21.88;;;9.30;;
45254;SDS011;30989;52.078;21.014;2023-05-14T05:26:48;17.55;;;10.10;;
45254;SDS011;30989;52.078;21.014;2023-05-14T05:29:16;15.50;;;8.13;;
45254;SDS011;30989;52.078;21.014;2023-05-14T05:31:41;16.42;;;8.38;;
45254;SDS011;30989;52.078;21.014;2023-05-14T05:34:07;16.38;;;7.97;;
45254;SDS011;30989;52.078;21.014;2023-05-14T05:36:32;17.70;;;8.82;;
45254;SDS011;30989;52.078;21.014;2023-05-14T05:38:58;26.30;;;9.15;;
45254;SDS011;30989;52.078;21.014;2023-05-14T05:41:23;17.40;;;8.45;;
45254;SDS011;30989;52.078;21.014;2023-05-14T05:43:49;15.20;;;7.97;;
45254;SDS011;30989;52.078;21.014;2023-05-14T05:46:14;16.27;;;8.65;;
45254;SDS011;30989;52.078;21.014;2023-05-14T05:48:39;12.70;;;6.35;;
45254;SDS011;30989;52.078;21.014;2023-05-14T05:51:05;18.13;;;8.82;;
45254;SDS011;30989;52.078;21.014;2023-05-14T05:53:30;20.65;;;8.25;;
45254;SDS011;30989;52.078;21.014;2023-05-14T05:55:56;16.67;;;7.32;;
45254;SDS011;30989;52.078;21.014;2023-05-14T05:58:21;10.68;;;5.70;;
45254;SDS011;30989;52.078;21.014;2023-05-14T06:00:46;13.15;;;6.90;;
45254;SDS011;30989;52.078;21.014;2023-05-14T06:03:12;18.58;;;7.30;;
45254;SDS011;30989;52.078;21.014;2023-05-14T06:05:39;14.20;;;7.25;;
45254;SDS011;30989;52.078;21.014;2023-05-14T06:08:05;12.00;;;6.57;;
45254;SDS011;30989;52.078;21.014;2023-05-14T06:10:30;11.88;;;5.72;;
45254;SDS011;30989;52.078;21.014;2023-05-14T06:12:56;10.68;;;6.10;;
45254;SDS011;30989;52.078;21.014;2023-05-14T06:15:21;33.75;;;16.17;;
45254;SDS011;30989;52.078;21.014;2023-05-14T06:17:47;26.98;;;13.25;;
45254;SDS011;30989;52.078;21.014;2023-05-14T06:20:12;12.93;;;6.55;;
45254;SDS011;30989;52.078;21.014;2023-05-14T06:22:38;11.85;;;5.53;;
45254;SDS011;30989;52.078;21.014;2023-05-14T06:25:03;13.45;;;5.68;;
45254;SDS011;30989;52.078;21.014;2023-05-14T06:27:29;12.25;;;5.35;;
45254;SDS011;30989;52.078;21.014;2023-05-14T06:29:55;13.52;;;5.10;;
45254;SDS011;30989;52.078;21.014;2023-05-14T06:32:20;10.85;;;5.80;;
45254;SDS011;30989;52.078;21.014;2023-05-14T06:34:46;14.10;;;6.47;;
45254;SDS011;30989;52.078;21.014;2023-05-14T06:37:11;10.60;;;4.85;;
45254;SDS011;30989;52.078;21.014;2023-05-14T06:39:37;22.48;;;11.23;;
45254;SDS011;30989;52.078;21.014;2023-05-14T06:42:03;11.80;;;5.60;;
45254;SDS011;30989;52.078;21.014;2023-05-14T06:44:29;10.50;;;4.25;;
45254;SDS011;30989;52.078;21.014;2023-05-14T06:46:55;9.13;;;4.18;;
45254;SDS011;30989;52.078;21.014;2023-05-14T06:49:21;15.93;;;4.50;;
45254;SDS011;30989;52.078;21.014;2023-05-14T06:51:46;6.65;;;3.53;;
45254;SDS011;30989;52.078;21.014;2023-05-14T06:54:12;8.63;;;4.43;;
45254;SDS011;30989;52.078;21.014;2023-05-14T06:56:37;7.93;;;3.67;;
45254;SDS011;30989;52.078;21.014;2023-05-14T06:59:03;8.75;;;3.50;;
45254;SDS011;30989;52.078;21.014;2023-05-14T07:01:28;7.22;;;3.53;;
45254;SDS011;30989;52.078;21.014;2023-05-14T07:03:54;5.68;;;3.22;;
45254;SDS011;30989;52.078;21.014;2023-05-14T07:06:20;5.82;;;2.78;;
45254;SDS011;30989;52.078;21.014;2023-05-14T07:08:46;5.45;;;3.15;;
45254;SDS011;30989;52.078;21.014;2023-05-14T07:11:12;7.75;;;3.38;;
45254;SDS011;30989;52.078;21.014;2023-05-14T07:13:37;7.35;;;3.28;;
45254;SDS011;30989;52.078;21.014;2023-05-14T07:16:04;6.28;;;2.45;;
45254;SDS011;30989;52.078;21.014;2023-05-14T07:18:30;8.88;;;2.85;;
45254;SDS011;30989;52.078;21.014;2023-05-14T07:20:55;7.80;;;3.00;;
45254;SDS011;30989;52.078;21.014;2023-05-14T07:23:21;8.10;;;2.80;;
45254;SDS011;30989;52.078;21.014;2023-05-14T07:25:46;8.65;;;3.55;;
45254;SDS011;30989;52.078;21.014;2023-05-14T07:28:12;4.55;;;2.47;;
45254;SDS011;30989;52.078;21.014;2023-05-14T07:30:37;7.28;;;2.70;;
45254;SDS011;30989;52.078;21.014;2023-05-14T07:33:02;5.60;;;2.15;;
45254;SDS011;30989;52.078;21.014;2023-05-14T07:35:28;4.10;;;2.50;;
45254;SDS011;30989;52.078;21.014;2023-05-14T07:37:53;8.82;;;2.83;;
45254;SDS011;30989;52.078;21.014;2023-05-14T07:40:19;6.10;;;2.70;;
45254;SDS011;30989;52.078;21.014;2023-05-14T07:42:44;5.88;;;2.00;;
45254;SDS011;30989;52.078;21.014;2023-05-14T07:45:10;8.43;;;2.90;;
45254;SDS011;30989;52.078;21.014;2023-05-14T07:47:35;8.05;;;4.18;;
45254;SDS011;30989;52.078;21.014;2023-05-14T07:50:01;6.30;;;2.50;;
45254;SDS011;30989;52.078;21.014;2023-05-14T07:52:27;5.15;;;2.72;;
45254;SDS011;30989;52.078;21.014;2023-05-14T07:54:53;7.30;;;3.38;;
45254;SDS011;30989;52.078;21.014;2023-05-14T07:57:19;8.07;;;4.53;;
45254;SDS011;30989;52.078;21.014;2023-05-14T07:59:45;5.55;;;2.42;;
45254;SDS011;30989;52.078;21.014;2023-05-14T08:02:12;5.10;;;2.08;;
45254;SDS011;30989;52.078;21.014;2023-05-14T08:04:39;7.65;;;2.67;;
45254;SDS011;30989;52.078;21.014;2023-05-14T08:07:05;4.05;;;2.40;;
45254;SDS011;30989;52.078;21.014;2023-05-14T08:09:32;4.47;;;2.38;;
45254;SDS011;30989;52.078;21.014;2023-05-14T08:11:57;8.40;;;2.45;;
45254;SDS011;30989;52.078;21.014;2023-05-14T08:14:23;5.45;;;2.30;;
45254;SDS011;30989;52.078;21.014;2023-05-14T08:16:48;5.93;;;2.20;;
45254;SDS011;30989;52.078;21.014;2023-05-14T08:19:14;7.20;;;1.83;;
45254;SDS011;30989;52.078;21.014;2023-05-14T08:21:40;4.72;;;2.10;;
45254;SDS011;30989;52.078;21.014;2023-05-14T08:24:05;3.70;;;2.08;;
45254;SDS011;30989;52.078;21.014;2023-05-14T08:26:31;4.40;;;2.22;;
45254;SDS011;30989;52.078;21.014;2023-05-14T08:28:56;3.78;;;2.08;;
45254;SDS011;30989;52.078;21.014;2023-05-14T08:31:21;4.45;;;2.28;;
45254;SDS011;30989;52.078;21.014;2023-05-14T08:33:47;5.80;;;2.30;;
45254;SDS011;30989;52.078;21.014;2023-05-14T08:36:12;6.72;;;2.00;;
45254;SDS011;30989;52.078;21.014;2023-05-14T08:38:38;6.30;;;1.90;;
45254;SDS011;30989;52.078;21.014;2023-05-14T08:41:04;2.90;;;1.33;;
45254;SDS011;30989;52.078;21.014;2023-05-14T08:43:42;4.93;;;1.65;;
45254;SDS011;30989;52.078;21.014;2023-05-14T08:46:15;3.47;;;1.60;;
45254;SDS011;30989;52.078;21.014;2023-05-14T08:48:44;7.22;;;3.05;;
45254;SDS011;30989;52.078;21.014;2023-05-14T08:51:14;14.25;;;3.88;;
45254;SDS011;30989;52.078;21.014;2023-05-14T08:53:40;5.22;;;1.95;;
45254;SDS011;30989;52.078;21.014;2023-05-14T08:56:05;4.93;;;2.15;;
45254;SDS011;30989;52.078;21.014;2023-05-14T08:58:32;4.13;;;1.90;;
45254;SDS011;30989;52.078;21.014;2023-05-14T09:00:58;8.80;;;1.90;;
45254;SDS011;30989;52.078;21.014;2023-05-14T09:03:23;4.90;;;1.63;;
45254;SDS011;30989;52.078;21.014;2023-05-14T09:05:49;4.97;;;1.67;;
45254;SDS011;30989;52.078;21.014;2023-05-14T09:08:15;4.75;;;1.77;;
45254;SDS011;30989;52.078;21.014;2023-05-14T09:10:41;5.50;;;2.08;;
45254;SDS011;30989;52.078;21.014;2023-05-14T09:13:06;5.55;;;2.10;;
45254;SDS011;30989;52.078;21.014;2023-05-14T09:15:34;5.80;;;1.77;;
45254;SDS011;30989;52.078;21.014;2023-05-14T09:18:03;5.22;;;1.85;;
45254;SDS011;30989;52.078;21.014;2023-05-14T09:20:29;3.92;;;1.67;;
45254;SDS011;30989;52.078;21.014;2023-05-14T09:22:55;3.53;;;1.60;;
45254;SDS011;30989;52.078;21.014;2023-05-14T09:25:24;4.70;;;2.00;;
45254;SDS011;30989;52.078;21.014;2023-05-14T09:27:51;3.50;;;1.60;;
45254;SDS011;30989;52.078;21.014;2023-05-14T09:30:18;11.88;;;1.80;;
45254;SDS011;30989;52.078;21.014;2023-05-14T09:32:44;7.70;;;1.98;;
45254;SDS011;30989;52.078;21.014;2023-05-14T09:35:18;5.97;;;1.77;;
45254;SDS011;30989;52.078;21.014;2023-05-14T09:40:15;6.15;;;2.25;;
45254;SDS011;30989;52.078;21.014;2023-05-14T09:42:43;5.18;;;2.05;;
45254;SDS011;30989;52.078;21.014;2023-05-14T09:45:09;5.68;;;2.30;;
45254;SDS011;30989;52.078;21.014;2023-05-14T09:47:36;7.03;;;1.80;;
45254;SDS011;30989;52.078;21.014;2023-05-14T09:50:02;9.45;;;1.60;;
45254;SDS011;30989;52.078;21.014;2023-05-14T09:52:28;6.45;;;1.70;;
45254;SDS011;30989;52.078;21.014;2023-05-14T09:54:54;2.30;;;1.33;;
45254;SDS011;30989;52.078;21.014;2023-05-14T09:57:20;3.72;;;2.08;;
45254;SDS011;30989;52.078;21.014;2023-05-14T09:59:45;6.25;;;2.00;;
45254;SDS011;30989;52.078;21.014;2023-05-14T10:02:15;3.80;;;1.40;;
45254;SDS011;30989;52.078;21.014;2023-05-14T10:04:49;16.33;;;2.08;;
45254;SDS011;30989;52.078;21.014;2023-05-14T10:07:18;4.72;;;1.90;;
45254;SDS011;30989;52.078;21.014;2023-05-14T10:09:47;3.58;;;2.08;;
45254;SDS011;30989;52.078;21.014;2023-05-14T10:12:13;4.57;;;2.03;;
45254;SDS011;30989;52.078;21.014;2023-05-14T10:14:46;4.00;;;1.88;;
45254;SDS011;30989;52.078;21.014;2023-05-14T10:17:18;6.82;;;1.92;;
45254;SDS011;30989;52.078;21.014;2023-05-14T10:19:46;3.65;;;1.83;;
45254;SDS011;30989;52.078;21.014;2023-05-14T10:22:16;3.38;;;1.63;;
45254;SDS011;30989;52.078;21.014;2023-05-14T10:24:46;4.80;;;1.85;;
45254;SDS011;30989;52.078;21.014;2023-05-14T10:27:14;3.28;;;1.55;;
45254;SDS011;30989;52.078;21.014;2023-05-14T10:29:41;13.90;;;1.80;;
45254;SDS011;30989;52.078;21.014;2023-05-14T10:32:22;3.55;;;1.60;;
45254;SDS011;30989;52.078;21.014;2023-05-14T10:34:49;3.40;;;1.55;;
45254;SDS011;30989;52.078;21.014;2023-05-14T10:37:16;4.50;;;1.85;;
45254;SDS011;30989;52.078;21.014;2023-05-14T10:40:17;7.05;;;2.97;;
45254;SDS011;30989;52.078;21.014;2023-05-14T10:42:37;5.60;;;1.58;;
45254;SDS011;30989;52.078;21.014;2023-05-14T10:45:08;4.93;;;2.30;;
45254;SDS011;30989;52.078;21.014;2023-05-14T10:47:36;8.45;;;1.70;;
45254;SDS011;30989;52.078;21.014;2023-05-14T10:50:07;3.28;;;1.90;;
45254;SDS011;30989;52.078;21.014;2023-05-14T10:52:34;7.13;;;1.77;;
45254;SDS011;30989;52.078;21.014;2023-05-14T10:55:01;4.22;;;2.00;;
45254;SDS011;30989;52.078;21.014;2023-05-14T10:57:31;6.70;;;2.40;;
45254;SDS011;30989;52.078;21.014;2023-05-14T11:00:00;5.65;;;3.05;;
45254;SDS011;30989;52.078;21.014;2023-05-14T11:02:30;4.88;;;1.90;;
45254;SDS011;30989;52.078;21.014;2023-05-14T11:05:10;5.43;;;1.80;;
45254;SDS011;30989;52.078;21.014;2023-05-14T11:07:41;4.70;;;1.90;;
45254;SDS011;30989;52.078;21.014;2023-05-14T11:10:11;5.00;;;2.17;;
45254;SDS011;30989;52.078;21.014;2023-05-14T11:12:39;4.20;;;2.00;;
45254;SDS011;30989;52.078;21.014;2023-05-14T11:15:07;4.97;;;1.50;;
45254;SDS011;30989;52.078;21.014;2023-05-14T11:17:34;3.78;;;2.15;;
45254;SDS011;30989;52.078;21.014;2023-05-14T11:20:01;6.53;;;2.22;;
45254;SDS011;30989;52.078;21.014;2023-05-14T11:22:27;3.47;;;1.42;;
45254;SDS011;30989;52.078;21.014;2023-05-14T11:24:52;4.28;;;1.65;;
45254;SDS011;30989;52.078;21.014;2023-05-14T11:27:18;5.57;;;1.75;;
45254;SDS011;30989;52.078;21.014;2023-05-14T11:29:48;6.18;;;1.48;;
45254;SDS011;30989;52.078;21.014;2023-05-14T11:32:14;5.80;;;1.95;;
45254;SDS011;30989;52.078;21.014;2023-05-14T11:34:41;4.63;;;1.50;;
45254;SDS011;30989;52.078;21.014;2023-05-14T11:37:11;4.57;;;1.95;;
45254;SDS011;30989;52.078;21.014;2023-05-14T11:39:37;4.18;;;1.80;;
45254;SDS011;30989;52.078;21.014;2023-05-14T11:42:04;5.78;;;1.50;;
45254;SDS011;30989;52.078;21.014;2023-05-14T11:44:33;3.00;;;1.48;;
45254;SDS011;30989;52.078;21.014;2023-05-14T11:46:59;6.00;;;1.95;;
45254;SDS011;30989;52.078;21.014;2023-05-14T11:49:29;2.97;;;1.35;;
45254;SDS011;30989;52.078;21.014;2023-05-14T11:51:59;5.70;;;1.30;;
45254;SDS011;30989;52.078;21.014;2023-05-14T11:54:26;4.70;;;1.60;;
45254;SDS011;30989;52.078;21.014;2023-05-14T11:56:53;3.88;;;1.58;;
45254;SDS011;30989;52.078;21.014;2023-05-14T11:59:20;7.88;;;1.88;;
45254;SDS011;30989;52.078;21.014;2023-05-14T12:01:45;3.78;;;1.42;;
45254;SDS011;30989;52.078;21.014;2023-05-14T12:04:11;4.38;;;1.60;;
45254;SDS011;30989;52.078;21.014;2023-05-14T12:06:38;13.18;;;6.20;;
45254;SDS011;30989;52.078;21.014;2023-05-14T12:09:04;6.43;;;2.63;;
45254;SDS011;30989;52.078;21.014;2023-05-14T12:11:30;3.05;;;1.33;;
45254;SDS011;30989;52.078;21.014;2023-05-14T12:13:59;3.75;;;1.85;;
45254;SDS011;30989;52.078;21.014;2023-05-14T12:16:31;6.22;;;1.52;;
45254;SDS011;30989;52.078;21.014;2023-05-14T12:19:00;2.65;;;1.25;;
45254;SDS011;30989;52.078;21.014;2023-05-14T12:21:26;3.55;;;1.55;;
45254;SDS011;30989;52.078;21.014;2023-05-14T12:23:59;5.57;;;1.83;;
45254;SDS011;30989;52.078;21.014;2023-05-14T12:26:25;3.60;;;1.15;;
45254;SDS011;30989;52.078;21.014;2023-05-14T12:28:58;4.65;;;1.83;;
45254;SDS011;30989;52.078;21.014;2023-05-14T12:31:28;4.53;;;1.30;;
45254;SDS011;30989;52.078;21.014;2023-05-14T12:33:54;7.82;;;1.95;;
45254;SDS011;30989;52.078;21.014;2023-05-14T12:36:20;7.53;;;1.60;;
45254;SDS011;30989;52.078;21.014;2023-05-14T12:38:46;4.10;;;1.40;;
45254;SDS011;30989;52.078;21.014;2023-05-14T12:41:11;3.88;;;1.20;;
45254;SDS011;30989;52.078;21.014;2023-05-14T12:43:37;3.38;;;1.27;;
45254;SDS011;30989;52.078;21.014;2023-05-14T12:46:03;3.80;;;1.33;;
45254;SDS011;30989;52.078;21.014;2023-05-14T12:48:29;5.28;;;1.48;;
45254;SDS011;30989;52.078;21.014;2023-05-14T12:50:54;3.85;;;1.30;;
45254;SDS011;30989;52.078;21.014;2023-05-14T12:53:20;4.00;;;1.48;;
45254;SDS011;30989;52.078;21.014;2023-05-14T12:55:45;2.30;;;1.17;;
45254;SDS011;30989;52.078;21.014;2023-05-14T12:58:11;10.25;;;4.97;;
45254;SDS011;30989;52.078;21.014;2023-05-14T13:00:36;4.72;;;2.00;;
45254;SDS011;30989;52.078;21.014;2023-05-14T13:03:02;3.90;;;1.73;;
45254;SDS011;30989;52.078;21.014;2023-05-14T13:05:27;4.50;;;1.00;;
45254;SDS011;30989;52.078;21.014;2023-05-14T13:07:53;3.40;;;1.40;;
45254;SDS011;30989;52.078;21.014;2023-05-14T13:10:22;7.47;;;1.60;;
45254;SDS011;30989;52.078;21.014;2023-05-14T13:12:48;6.25;;;1.85;;
45254;SDS011;30989;52.078;21.014;2023-05-14T13:15:14;2.97;;;1.30;;
45254;SDS011;30989;52.078;21.014;2023-05-14T13:17:40;2.50;;;1.10;;
45254;SDS011;30989;52.078;21.014;2023-05-14T13:20:05;4.82;;;1.83;;
45254;SDS011;30989;52.078;21.014;2023-05-14T13:22:31;3.15;;;1.23;;
45254;SDS011;30989;52.078;21.014;2023-05-14T13:24:57;5.65;;;1.60;;
45254;SDS011;30989;52.078;21.014;2023-05-14T13:27:23;3.92;;;1.35;;
45254;SDS011;30989;52.078;21.014;2023-05-14T13:29:48;1.98;;;1.25;;
45254;SDS011;30989;52.078;21.014;2023-05-14T13:32:13;4.45;;;1.80;;
45254;SDS011;30989;52.078;21.014;2023-05-14T13:34:39;4.68;;;2.33;;
45254;SDS011;30989;52.078;21.014;2023-05-14T13:37:04;2.88;;;1.30;;
45254;SDS011;30989;52.078;21.014;2023-05-14T13:39:30;5.55;;;1.30;;
45254;SDS011;30989;52.078;21.014;2023-05-14T13:41:55;3.72;;;1.33;;
45254;SDS011;30989;52.078;21.014;2023-05-14T13:44:21;2.10;;;1.17;;
45254;SDS011;30989;52.078;21.014;2023-05-14T13:46:46;10.85;;;1.90;;
45254;SDS011;30989;52.078;21.014;2023-05-14T13:49:12;3.63;;;1.27;;
45254;SDS011;30989;52.078;21.014;2023-05-14T13:51:37;3.78;;;1.40;;
45254;SDS011;30989;52.078;21.014;2023-05-14T13:54:03;3.88;;;1.50;;
45254;SDS011;30989;52.078;21.014;2023-05-14T13:56:28;4.47;;;1.35;;
45254;SDS011;30989;52.078;21.014;2023-05-14T13:58:54;2.75;;;1.40;;
45254;SDS011;30989;52.078;21.014;2023-05-14T14:01:19;3.22;;;1.20;;
45254;SDS011;30989;52.078;21.014;2023-05-14T14:03:45;2.40;;;1.20;;
45254;SDS011;30989;52.078;21.014;2023-05-14T14:06:11;2.47;;;1.48;;
45254;SDS011;30989;52.078;21.014;2023-05-14T14:08:36;4.65;;;1.60;;
45254;SDS011;30989;52.078;21.014;2023-05-14T14:11:02;3.00;;;1.38;;
45254;SDS011;30989;52.078;21.014;2023-05-14T14:13:27;3.92;;;1.60;;
45254;SDS011;30989;52.078;21.014;2023-05-14T14:15:53;3.67;;;1.30;;
45254;SDS011;30989;52.078;21.014;2023-05-14T14:18:19;5.80;;;1.60;;
45254;SDS011;30989;52.078;21.014;2023-05-14T14:20:44;6.22;;;1.77;;
45254;SDS011;30989;52.078;21.014;2023-05-14T14:23:10;4.05;;;1.33;;
45254;SDS011;30989;52.078;21.014;2023-05-14T14:25:35;5.32;;;2.30;;